createdAt,value
2023-01-17T00:00:16.299Z,20
2023-01-17T00:05:16.251Z,25
2023-01-17T00:10:16.242Z,22
2023-01-17T00:15:16.465Z,20
2023-01-17T00:20:18.634Z,21
2023-01-17T00:25:16.459Z,22
2023-01-17T00:30:16.355Z,20
2023-01-17T00:35:16.358Z,20
2023-01-17T00:40:16.355Z,23
2023-01-17T00:45:16.419Z,20
2023-01-17T00:50:16.422Z,21
2023-01-17T00:55:16.348Z,19
2023-01-17T01:00:16.446Z,20
2023-01-17T01:05:16.323Z,21
2023-01-17T01:10:16.455Z,20
2023-01-17T01:15:16.428Z,20
2023-01-17T01:20:16.467Z,19
2023-01-17T01:25:16.464Z,20
2023-01-17T01:30:16.530Z,22
2023-01-17T01:35:16.500Z,21
2023-01-17T01:40:16.461Z,23
2023-01-17T01:45:16.651Z,24
2023-01-17T01:50:16.509Z,22
2023-01-17T01:55:16.415Z,24
2023-01-17T02:00:16.706Z,25
2023-01-17T02:05:16.584Z,22
2023-01-17T02:10:16.529Z,23
2023-01-17T02:15:16.830Z,22
2023-01-17T02:20:16.555Z,22
2023-01-17T02:25:16.563Z,25
2023-01-17T02:30:16.692Z,25
2023-01-17T02:35:16.788Z,26
2023-01-17T02:40:16.618Z,22
2023-01-17T02:45:16.593Z,24
2023-01-17T02:50:16.609Z,25
2023-01-17T02:55:16.631Z,21
2023-01-17T03:00:16.605Z,30
2023-01-17T03:05:17.258Z,30
2023-01-17T03:10:16.762Z,24
2023-01-17T03:15:16.775Z,25
2023-01-17T03:20:16.876Z,27
2023-01-17T03:25:16.721Z,20
2023-01-17T03:30:16.749Z,24
2023-01-17T03:35:16.708Z,23
2023-01-17T03:40:16.699Z,21
2023-01-17T03:45:16.796Z,26
2023-01-17T03:50:16.746Z,21
2023-01-17T03:55:16.672Z,21
2023-01-17T04:00:16.789Z,21
2023-01-17T04:05:16.927Z,19
2023-01-17T04:10:16.736Z,21
2023-01-17T04:15:16.810Z,21
2023-01-17T04:20:16.799Z,18
2023-01-17T04:25:16.953Z,22
2023-01-17T04:30:16.844Z,25
2023-01-17T04:35:17.047Z,19
2023-01-17T04:40:16.901Z,19
2023-01-17T04:45:16.892Z,23
2023-01-17T04:50:17.082Z,28
2023-01-17T04:55:16.918Z,25
2023-01-17T05:00:15.970Z,21
2023-01-17T05:05:15.927Z,21
2023-01-17T05:10:15.894Z,21
2023-01-17T05:15:15.920Z,18
2023-01-17T05:20:15.895Z,14
2023-01-17T05:25:16.032Z,18
2023-01-17T05:30:15.951Z,19
2023-01-17T05:35:16.029Z,16
2023-01-17T05:40:16.073Z,18
2023-01-17T05:45:16.036Z,15
2023-01-17T05:50:16.168Z,17
2023-01-17T05:55:16.022Z,20
2023-01-17T06:00:16.131Z,19
2023-01-17T06:05:16.020Z,15
2023-01-17T06:10:16.039Z,14
2023-01-17T06:15:16.054Z,12
2023-01-17T06:20:16.141Z,11
2023-01-17T06:25:16.187Z,10
2023-01-17T06:30:16.102Z,10
2023-01-17T06:35:16.257Z,10
2023-01-17T06:40:16.167Z,11
2023-01-17T06:45:16.161Z,10
2023-01-17T06:50:16.147Z,13
2023-01-17T06:55:16.155Z,13
2023-01-17T07:00:16.184Z,12
2023-01-17T07:05:16.331Z,15
2023-01-17T07:10:16.215Z,16
2023-01-17T07:15:16.196Z,15
2023-01-17T07:20:16.208Z,12
2023-01-17T07:25:16.350Z,12
2023-01-17T07:30:16.216Z,13
2023-01-17T07:35:17.219Z,15
2023-01-17T07:40:16.254Z,16
2023-01-17T07:45:16.358Z,14
2023-01-17T07:50:16.278Z,15
2023-01-17T07:55:16.209Z,15
2023-01-17T08:00:16.425Z,14
2023-01-17T08:05:16.391Z,11
2023-01-17T08:10:16.382Z,11
2023-01-17T08:15:16.376Z,4
2023-01-17T08:20:16.540Z,4
2023-01-17T08:25:16.505Z,7
2023-01-17T08:30:16.475Z,7
2023-01-17T08:35:16.483Z,3
2023-01-17T08:40:16.391Z,3
2023-01-17T08:45:16.434Z,2
2023-01-17T08:50:16.630Z,3
2023-01-17T08:55:16.488Z,3
2023-01-17T09:00:16.543Z,2
2023-01-17T09:05:16.445Z,4
2023-01-17T09:10:16.461Z,2
2023-01-17T09:15:16.505Z,2
2023-01-17T09:20:16.542Z,2
2023-01-17T09:25:16.553Z,2
2023-01-17T09:30:16.520Z,1
2023-01-17T09:35:16.661Z,2
2023-01-17T09:40:16.509Z,3
2023-01-17T09:45:16.558Z,4
2023-01-17T09:50:16.554Z,3
2023-01-17T09:55:16.453Z,4
2023-01-17T10:00:16.576Z,3
2023-01-17T10:05:16.575Z,4
2023-01-17T10:10:16.530Z,5
2023-01-17T10:15:16.651Z,5
2023-01-17T10:20:16.589Z,5
2023-01-17T10:25:16.641Z,5
2023-01-17T10:30:16.661Z,5
2023-01-17T10:35:16.689Z,4
2023-01-17T10:40:16.909Z,2
2023-01-17T10:45:16.779Z,3
2023-01-17T10:50:16.742Z,3
2023-01-17T10:55:16.807Z,3
2023-01-17T11:00:16.602Z,4
2023-01-17T11:05:16.707Z,7
2023-01-17T11:10:16.656Z,4
2023-01-17T11:15:16.749Z,3
2023-01-17T11:20:16.886Z,3
2023-01-17T11:25:16.875Z,4
2023-01-17T11:30:17.103Z,4
2023-01-17T11:35:16.880Z,5
2023-01-17T11:40:16.848Z,7
2023-01-17T11:45:16.933Z,5
2023-01-17T11:50:16.763Z,6
2023-01-17T11:55:16.708Z,5
2023-01-17T12:00:16.943Z,5
2023-01-17T12:05:17.062Z,7
2023-01-17T12:10:17.090Z,8
2023-01-17T12:15:17.079Z,7
2023-01-17T12:20:16.840Z,8
2023-01-17T12:25:16.956Z,9
2023-01-17T12:30:16.888Z,10
2023-01-17T12:35:16.957Z,8
2023-01-17T12:40:17.033Z,8
2023-01-17T12:45:16.962Z,7
2023-01-17T12:50:16.899Z,7
2023-01-17T12:55:17.105Z,8
2023-01-17T13:00:16.908Z,7
2023-01-17T13:05:17.011Z,8
2023-01-17T13:10:17.061Z,8
2023-01-17T13:15:17.077Z,10
2023-01-17T13:20:17.123Z,11
2023-01-17T13:25:17.000Z,11
2023-01-17T13:30:17.063Z,11
2023-01-17T13:35:17.187Z,10
2023-01-17T13:40:17.072Z,9
2023-01-17T13:45:17.089Z,13
2023-01-17T13:50:17.070Z,10
2023-01-17T13:55:17.056Z,10
2023-01-17T14:00:17.200Z,10
2023-01-17T14:05:17.147Z,8
2023-01-17T14:10:17.279Z,9
2023-01-17T14:15:17.136Z,8
2023-01-17T14:20:17.102Z,10
2023-01-17T14:25:17.247Z,10
2023-01-17T14:30:17.190Z,11
2023-01-17T14:35:17.346Z,13
2023-01-17T14:40:17.231Z,12
2023-01-17T14:45:17.302Z,13
2023-01-17T14:50:17.375Z,10
2023-01-17T14:55:17.191Z,10
2023-01-17T15:00:17.248Z,12
2023-01-17T15:05:17.430Z,11
2023-01-17T15:10:17.326Z,13
2023-01-17T15:15:17.285Z,12
2023-01-17T15:20:17.262Z,12
2023-01-17T15:25:17.252Z,11
2023-01-17T15:30:17.320Z,11
2023-01-17T15:35:17.317Z,9
2023-01-17T15:40:17.327Z,9
2023-01-17T15:45:17.396Z,10
2023-01-17T15:50:17.512Z,10
2023-01-17T15:55:17.259Z,9
2023-01-17T16:00:17.401Z,4
2023-01-17T16:05:17.491Z,6
2023-01-17T16:10:15.518Z,6
2023-01-17T16:15:18.164Z,5
2023-01-17T16:20:15.369Z,7
2023-01-17T16:25:15.485Z,9
2023-01-17T16:30:15.463Z,10
2023-01-17T16:35:15.477Z,8
2023-01-17T16:40:15.443Z,9
2023-01-17T16:45:15.798Z,9
2023-01-17T16:50:15.547Z,8
2023-01-17T16:55:15.537Z,7
2023-01-17T17:00:15.615Z,7
2023-01-17T17:05:15.599Z,7
2023-01-17T17:10:15.552Z,6
2023-01-17T17:15:15.493Z,5
2023-01-17T17:20:15.710Z,8
2023-01-17T17:25:15.731Z,7
2023-01-17T17:30:15.550Z,3
2023-01-17T17:35:15.673Z,4
2023-01-17T17:40:15.764Z,4
2023-01-17T17:45:15.748Z,3
2023-01-17T17:50:15.621Z,6
2023-01-17T17:55:15.578Z,4
2023-01-17T18:00:15.652Z,7
2023-01-17T18:05:15.698Z,5
2023-01-17T18:10:15.735Z,6
2023-01-17T18:15:15.721Z,5
2023-01-17T18:20:15.683Z,7
2023-01-17T18:25:15.717Z,6
2023-01-17T18:30:15.798Z,7
2023-01-17T18:35:15.716Z,7
2023-01-17T18:40:15.699Z,8
2023-01-17T18:45:15.702Z,10
2023-01-17T18:50:15.900Z,8
2023-01-17T18:55:16.015Z,6
2023-01-17T19:00:15.844Z,5
2023-01-17T19:05:15.811Z,7
2023-01-17T19:10:15.774Z,5
2023-01-17T19:15:15.739Z,6
2023-01-17T19:20:15.862Z,7
2023-01-17T19:25:15.825Z,7
2023-01-17T19:30:15.845Z,7
2023-01-17T19:35:15.915Z,8
2023-01-17T19:40:15.893Z,9
2023-01-17T19:45:15.877Z,9
2023-01-17T19:50:15.848Z,9
2023-01-17T19:55:15.861Z,9
2023-01-17T20:00:15.838Z,8
2023-01-17T20:05:16.057Z,8
2023-01-17T20:10:16.753Z,8
2023-01-17T20:15:15.891Z,6
2023-01-17T20:20:16.224Z,3
2023-01-17T20:25:16.109Z,3
2023-01-17T20:30:20.488Z,2
2023-01-17T20:35:15.970Z,2
2023-01-17T20:40:15.999Z,3
2023-01-17T20:45:16.049Z,2
2023-01-17T20:50:16.005Z,2
2023-01-17T20:55:16.005Z,1
2023-01-17T21:00:16.044Z,0
2023-01-17T21:05:16.008Z,2
2023-01-17T21:10:16.183Z,2
2023-01-17T21:15:16.379Z,3
2023-01-17T21:20:16.173Z,2
2023-01-17T21:25:16.200Z,2
2023-01-17T21:30:16.199Z,2
2023-01-17T21:35:16.172Z,2
2023-01-17T21:40:16.267Z,2
2023-01-17T21:45:16.132Z,2
2023-01-17T21:50:32.086Z,2
2023-01-17T21:55:19.382Z,2
2023-01-17T22:00:16.158Z,2
2023-01-17T22:05:16.176Z,2
2023-01-17T22:10:16.222Z,2
2023-01-17T22:15:16.227Z,3
2023-01-17T22:20:16.198Z,3
2023-01-17T22:25:16.191Z,2
2023-01-17T22:30:16.224Z,2
2023-01-17T22:35:16.207Z,3
2023-01-17T22:40:16.332Z,2
2023-01-17T22:45:16.347Z,2
2023-01-17T22:50:16.320Z,2
2023-01-17T22:55:16.295Z,2
2023-01-17T23:00:16.245Z,2
2023-01-17T23:05:16.390Z,2
2023-01-17T23:10:16.375Z,2
2023-01-17T23:15:16.406Z,2
2023-01-17T23:20:16.346Z,2
2023-01-17T23:25:16.363Z,2
2023-01-17T23:30:16.401Z,3
2023-01-17T23:35:16.535Z,7
2023-01-17T23:40:16.358Z,4
2023-01-17T23:45:16.394Z,3
2023-01-17T23:50:16.371Z,2
2023-01-17T23:55:16.645Z,3
